createdAt,value
2023-04-02T00:00:12.840Z,99.99
2023-04-02T00:01:12.824Z,99.99
2023-04-02T00:02:12.854Z,99.93
2023-04-02T00:03:12.867Z,99.99
2023-04-02T00:04:13.003Z,99.99
2023-04-02T00:05:12.782Z,99.99
2023-04-02T00:06:12.780Z,99.99
2023-04-02T00:07:12.753Z,99.82
2023-04-02T00:08:12.754Z,99.72
2023-04-02T00:09:12.760Z,99.82
2023-04-02T00:10:12.727Z,99.82
2023-04-02T00:11:12.705Z,99.62
2023-04-02T00:12:12.729Z,99.31
2023-04-02T00:13:12.693Z,99.41
2023-04-02T00:14:12.698Z,99.52
2023-04-02T00:15:12.688Z,99.31
2023-04-02T00:16:12.673Z,99.21
2023-04-02T00:17:12.672Z,99.41
2023-04-02T00:18:12.670Z,99.52
2023-04-02T00:19:12.622Z,99.41
2023-04-02T00:20:12.665Z,99.72
2023-04-02T00:21:12.609Z,99.82
2023-04-02T00:22:12.647Z,99.99
2023-04-02T00:23:12.579Z,99.99
2023-04-02T00:24:12.594Z,99.82
2023-04-02T00:25:12.584Z,99.82
2023-04-02T00:26:12.558Z,99.99
2023-04-02T00:27:12.582Z,99.99
2023-04-02T00:28:12.528Z,99.82
2023-04-02T00:29:12.551Z,99.77
2023-04-02T00:30:12.498Z,99.82
2023-04-02T00:31:12.495Z,99.82
2023-04-02T00:32:12.546Z,99.99
2023-04-02T00:33:12.563Z,99.99
2023-04-02T00:34:12.560Z,99.99
2023-04-02T00:35:12.451Z,99.99
2023-04-02T00:36:12.462Z,99.82
2023-04-02T00:37:12.436Z,99.99
2023-04-02T00:38:12.413Z,99.99
2023-04-02T00:39:12.402Z,99.99
2023-04-02T00:40:12.401Z,99.99
2023-04-02T00:41:12.373Z,99.99
2023-04-02T00:42:12.374Z,99.98
2023-04-02T00:43:12.346Z,99.99
2023-04-02T00:44:12.411Z,99.99
2023-04-02T00:45:12.354Z,99.77
2023-04-02T00:46:12.369Z,99.77
2023-04-02T00:47:12.295Z,99.66
2023-04-02T00:48:12.355Z,99.46
2023-04-02T00:49:12.301Z,99.35
2023-04-02T00:50:12.282Z,99.56
2023-04-02T00:51:12.262Z,99.35
2023-04-02T00:52:12.263Z,99.25
2023-04-02T00:53:12.272Z,99.35
2023-04-02T00:54:12.231Z,99.35
2023-04-02T00:55:12.264Z,99.66
2023-04-02T00:56:12.233Z,99.92
2023-04-02T00:57:12.314Z,99.82
2023-04-02T00:58:12.197Z,99.71
2023-04-02T00:59:12.179Z,99.61
2023-04-02T01:00:12.182Z,99.30
2023-04-02T01:01:12.193Z,99.46
2023-04-02T01:02:12.197Z,99.51
2023-04-02T01:03:12.222Z,99.19
2023-04-02T01:04:12.118Z,99.40
2023-04-02T01:05:12.139Z,99.19
2023-04-02T01:06:12.108Z,98.88
2023-04-02T01:07:12.088Z,98.99
2023-04-02T01:08:12.085Z,99.09
2023-04-02T01:09:12.150Z,98.99
2023-04-02T01:10:12.050Z,98.78
2023-04-02T01:11:12.037Z,98.78
2023-04-02T01:12:12.034Z,98.88
2023-04-02T01:13:12.122Z,98.57
2023-04-02T01:14:12.023Z,98.88
2023-04-02T01:15:12.010Z,99.09
2023-04-02T01:16:12.014Z,99.19
2023-04-02T01:17:11.982Z,99.40
2023-04-02T01:18:11.985Z,99.51
2023-04-02T01:19:11.951Z,99.61
2023-04-02T01:20:11.966Z,99.30
2023-04-02T01:21:11.934Z,98.88
2023-04-02T01:22:11.910Z,98.78
2023-04-02T01:23:11.903Z,99.13
2023-04-02T01:24:11.904Z,98.93
2023-04-02T01:25:11.880Z,98.82
2023-04-02T01:26:11.896Z,98.93
2023-04-02T01:27:11.928Z,99.03
2023-04-02T01:28:11.841Z,99.03
2023-04-02T01:29:11.837Z,98.93
2023-04-02T01:30:11.829Z,98.72
2023-04-02T01:31:11.821Z,98.41
2023-04-02T01:32:11.832Z,98.30
2023-04-02T01:33:11.797Z,98.55
2023-04-02T01:34:11.799Z,98.45
2023-04-02T01:35:11.778Z,98.76
2023-04-02T01:36:11.796Z,98.86
2023-04-02T01:37:11.746Z,98.97
2023-04-02T01:38:11.759Z,99.38
2023-04-02T01:39:11.742Z,99.38
2023-04-02T01:40:11.719Z,99.28
2023-04-02T01:41:11.696Z,99.38
2023-04-02T01:42:11.692Z,99.18
2023-04-02T01:43:11.695Z,98.55
2023-04-02T01:44:11.679Z,98.76
2023-04-02T01:45:11.667Z,98.76
2023-04-02T01:46:11.653Z,98.97
2023-04-02T01:47:11.633Z,98.66
2023-04-02T01:48:11.645Z,98.66
2023-04-02T01:49:11.611Z,98.81
2023-04-02T01:50:11.678Z,98.76
2023-04-02T01:51:11.600Z,98.50
2023-04-02T01:52:11.585Z,98.45
2023-04-02T01:53:11.594Z,98.39
2023-04-02T01:54:11.559Z,98.45
2023-04-02T01:55:11.591Z,98.29
2023-04-02T01:56:11.557Z,98.50
2023-04-02T01:57:11.534Z,98.60
2023-04-02T01:58:11.524Z,98.71
2023-04-02T01:59:11.524Z,98.71
2023-04-02T02:00:11.521Z,99.02
2023-04-02T02:01:11.551Z,99.02
2023-04-02T02:02:11.600Z,98.91
2023-04-02T02:03:11.494Z,98.91
2023-04-02T02:04:11.456Z,99.12
2023-04-02T02:05:11.469Z,98.81
2023-04-02T02:06:11.455Z,98.81
2023-04-02T02:07:11.411Z,98.91
2023-04-02T02:08:11.489Z,98.71
2023-04-02T02:09:11.396Z,98.91
2023-04-02T02:10:11.415Z,98.71
2023-04-02T02:11:11.374Z,99.02
2023-04-02T02:12:11.365Z,98.91
2023-04-02T02:13:11.368Z,98.81
2023-04-02T02:14:11.372Z,98.60
2023-04-02T02:15:11.348Z,98.39
2023-04-02T02:16:11.383Z,98.29
2023-04-02T02:17:11.315Z,98.39
2023-04-02T02:18:11.315Z,98.71
2023-04-02T02:19:11.314Z,99.12
2023-04-02T02:20:11.347Z,98.91
2023-04-02T02:21:11.279Z,98.71
2023-04-02T02:22:11.286Z,98.50
2023-04-02T02:23:11.287Z,98.81
2023-04-02T02:24:11.259Z,98.71
2023-04-02T02:25:11.250Z,98.50
2023-04-02T02:26:11.236Z,98.19
2023-04-02T02:27:11.242Z,98.08
2023-04-02T02:28:11.252Z,98.19
2023-04-02T02:29:11.202Z,98.08
2023-04-02T02:30:11.183Z,97.98
2023-04-02T02:31:11.173Z,98.19
2023-04-02T02:32:11.273Z,97.77
2023-04-02T02:33:11.166Z,98.19
2023-04-02T02:34:11.137Z,98.19
2023-04-02T02:35:11.137Z,98.29
2023-04-02T02:36:11.154Z,98.19
2023-04-02T02:37:11.134Z,98.23
2023-04-02T02:38:11.155Z,97.92
2023-04-02T02:39:11.107Z,97.81
2023-04-02T02:40:11.078Z,97.81
2023-04-02T02:41:11.112Z,98.02
2023-04-02T02:42:11.051Z,98.02
2023-04-02T02:43:11.082Z,98.13
2023-04-02T02:44:11.036Z,98.02
2023-04-02T02:45:11.185Z,98.02
2023-04-02T02:46:11.064Z,97.92
2023-04-02T02:47:11.002Z,97.71
2023-04-02T02:48:11.031Z,97.81
2023-04-02T02:49:10.986Z,97.81
2023-04-02T02:50:10.978Z,97.92
2023-04-02T02:51:10.992Z,97.71
2023-04-02T02:52:10.943Z,97.61
2023-04-02T02:53:10.936Z,97.50
2023-04-02T02:54:10.924Z,97.40
2023-04-02T02:55:10.921Z,97.50
2023-04-02T02:56:10.925Z,97.61
2023-04-02T02:57:10.935Z,97.30
2023-04-02T02:58:10.884Z,97.40
2023-04-02T02:59:10.942Z,97.50
2023-04-02T03:00:10.866Z,97.71
2023-04-02T03:01:10.878Z,97.61
2023-04-02T03:02:10.863Z,97.03
2023-04-02T03:03:11.039Z,96.98
2023-04-02T03:04:10.882Z,97.24
2023-04-02T03:05:10.806Z,97.55
2023-04-02T03:06:10.815Z,97.24
2023-04-02T03:07:10.788Z,96.92
2023-04-02T03:08:10.790Z,96.61
2023-04-02T03:09:10.773Z,96.61
2023-04-02T03:10:10.771Z,96.61
2023-04-02T03:11:10.796Z,96.51
2023-04-02T03:12:10.742Z,96.82
2023-04-02T03:13:10.756Z,96.51
2023-04-02T03:14:10.715Z,96.20
2023-04-02T03:15:10.722Z,96.61
2023-04-02T03:16:10.777Z,96.41
2023-04-02T03:17:10.687Z,96.61
2023-04-02T03:18:10.674Z,96.82
2023-04-02T03:19:10.674Z,96.61
2023-04-02T03:20:10.758Z,96.51
2023-04-02T03:21:10.648Z,96.61
2023-04-02T03:22:10.638Z,96.72
2023-04-02T03:23:10.631Z,97.24
2023-04-02T03:24:10.627Z,96.61
2023-04-02T03:25:10.612Z,95.67
2023-04-02T03:26:10.614Z,95.57
2023-04-02T03:27:10.623Z,95.47
2023-04-02T03:28:10.582Z,95.36
2023-04-02T03:29:10.691Z,95.67
2023-04-02T03:30:10.567Z,95.57
2023-04-02T03:31:10.625Z,95.47
2023-04-02T03:32:10.546Z,95.67
2023-04-02T03:33:10.589Z,94.95
2023-04-02T03:34:10.507Z,94.74
2023-04-02T03:35:10.527Z,94.64
2023-04-02T03:36:10.555Z,94.12
2023-04-02T03:37:10.478Z,94.37
2023-04-02T03:38:10.504Z,94.57
2023-04-02T03:39:10.478Z,94.26
2023-04-02T03:40:10.454Z,94.57
2023-04-02T03:41:10.446Z,94.78
2023-04-02T03:42:10.446Z,94.99
2023-04-02T03:43:10.469Z,95.51
2023-04-02T03:44:10.428Z,95.30
2023-04-02T03:45:10.403Z,95.09
2023-04-02T03:46:10.414Z,94.89
2023-04-02T03:47:10.399Z,94.68
2023-04-02T03:48:10.381Z,94.68
2023-04-02T03:49:10.363Z,94.89
2023-04-02T03:50:10.459Z,94.57
2023-04-02T03:51:10.353Z,95.09
2023-04-02T03:52:10.339Z,94.57
2023-04-02T03:53:10.326Z,94.37
2023-04-02T03:54:10.332Z,94.26
2023-04-02T03:55:10.331Z,94.37
2023-04-02T03:56:10.318Z,94.37
2023-04-02T03:57:10.316Z,94.68
2023-04-02T03:58:10.267Z,95.20
2023-04-02T03:59:10.344Z,95.30
2023-04-02T04:00:10.245Z,94.78
2023-04-02T04:01:10.307Z,94.47
2023-04-02T04:02:10.281Z,94.10
2023-04-02T04:03:10.246Z,94.06
2023-04-02T04:04:10.240Z,94.26
2023-04-02T04:05:10.197Z,94.68
2023-04-02T04:06:10.200Z,94.68
2023-04-02T04:07:10.196Z,93.85
2023-04-02T04:08:10.256Z,93.95
2023-04-02T04:09:10.191Z,94.16
2023-04-02T04:10:10.160Z,94.47
2023-04-02T04:11:10.253Z,94.37
2023-04-02T04:12:10.118Z,94.26
2023-04-02T04:13:10.114Z,95.30
2023-04-02T04:14:10.113Z,95.09
2023-04-02T04:15:10.122Z,94.57
2023-04-02T04:16:10.115Z,94.47
2023-04-02T04:17:10.067Z,94.37
2023-04-02T04:18:10.088Z,94.68
2023-04-02T04:19:10.046Z,94.68
2023-04-02T04:20:10.062Z,95.09
2023-04-02T04:21:10.037Z,95.09
2023-04-02T04:22:10.012Z,95.62
2023-04-02T04:23:10.029Z,95.40
2023-04-02T04:24:10.002Z,95.09
2023-04-02T04:25:09.983Z,94.89
2023-04-02T04:26:09.987Z,95.51
2023-04-02T04:27:10.051Z,95.45
2023-04-02T04:28:09.952Z,95.66
2023-04-02T04:29:10.042Z,95.35
2023-04-02T04:30:09.942Z,94.62
2023-04-02T04:31:09.998Z,94.51
2023-04-02T04:32:09.932Z,94.68
2023-04-02T04:33:09.956Z,93.99
2023-04-02T04:34:09.894Z,94.31
2023-04-02T04:35:09.841Z,94.62
2023-04-02T04:36:09.966Z,94.62
2023-04-02T04:37:09.870Z,94.62
2023-04-02T04:38:09.849Z,94.72
2023-04-02T04:39:09.853Z,94.72
2023-04-02T04:40:09.829Z,94.41
2023-04-02T04:41:09.778Z,94.62
2023-04-02T04:42:09.815Z,94.93
2023-04-02T04:43:09.784Z,94.41
2023-04-02T04:44:09.742Z,94.31
2023-04-02T04:45:09.733Z,94.51
2023-04-02T04:46:09.772Z,93.99
2023-04-02T04:47:09.717Z,94.31
2023-04-02T04:48:09.691Z,93.68
2023-04-02T04:49:09.682Z,93.68
2023-04-02T04:50:09.693Z,93.58
2023-04-02T04:51:09.677Z,93.58
2023-04-02T04:52:09.647Z,93.58
2023-04-02T04:53:09.645Z,93.27
2023-04-02T04:54:09.630Z,93.27
2023-04-02T04:55:09.627Z,93.48
2023-04-02T04:56:18.669Z,93.58
2023-04-02T04:57:09.662Z,94.10
2023-04-02T04:58:09.604Z,93.99
2023-04-02T04:59:09.587Z,94.20
2023-04-02T05:00:09.572Z,93.89
2023-04-02T05:01:09.626Z,93.48
2023-04-02T05:02:09.563Z,93.89
2023-04-02T05:03:09.606Z,94.72
2023-04-02T05:04:09.611Z,95.14
2023-04-02T05:05:09.528Z,94.72
2023-04-02T05:06:09.524Z,94.41
2023-04-02T05:07:09.505Z,94.31
2023-04-02T05:08:09.531Z,93.99
2023-04-02T05:09:09.510Z,93.58
2023-04-02T05:10:09.579Z,93.48
2023-04-02T05:11:09.486Z,93.05
2023-04-02T05:12:09.466Z,92.54
2023-04-02T05:13:09.458Z,92.95
2023-04-02T05:14:09.437Z,92.74
2023-04-02T05:15:09.465Z,92.54
2023-04-02T05:16:09.435Z,92.43
2023-04-02T05:17:09.561Z,92.22
2023-04-02T05:18:09.386Z,92.22
2023-04-02T05:19:09.427Z,92.54
2023-04-02T05:20:09.366Z,92.74
2023-04-02T05:21:09.359Z,92.22
2023-04-02T05:22:09.352Z,93.05
2023-04-02T05:23:09.346Z,92.33
2023-04-02T05:24:09.374Z,92.64
2023-04-02T05:25:09.368Z,92.54
2023-04-02T05:26:09.352Z,92.54
2023-04-02T05:27:09.302Z,92.43
2023-04-02T05:28:09.285Z,92.43
2023-04-02T05:29:09.311Z,92.85
2023-04-02T05:30:09.278Z,92.74
2023-04-02T05:31:09.335Z,93.16
2023-04-02T05:32:09.242Z,93.48
2023-04-02T05:33:09.370Z,92.64
2023-04-02T05:34:09.237Z,92.12
2023-04-02T05:35:09.229Z,92.12
2023-04-02T05:36:09.403Z,92.43
2023-04-02T05:37:09.184Z,92.22
2023-04-02T05:38:09.330Z,92.33
2023-04-02T05:39:09.177Z,92.22
2023-04-02T05:40:09.249Z,92.33
2023-04-02T05:41:09.150Z,92.43
2023-04-02T05:42:09.154Z,91.39
2023-04-02T05:43:10.109Z,91.71
2023-04-02T05:44:09.138Z,91.60
2023-04-02T05:45:09.308Z,91.50
2023-04-02T05:46:09.130Z,91.18
2023-04-02T05:47:09.177Z,91.18
2023-04-02T05:48:09.079Z,91.39
2023-04-02T05:49:09.095Z,91.60
2023-04-02T05:50:09.081Z,91.39
2023-04-02T05:51:09.145Z,91.60
2023-04-02T05:52:09.044Z,91.60
2023-04-02T05:53:09.023Z,91.91
2023-04-02T05:54:09.072Z,90.97
2023-04-02T05:55:09.016Z,90.77
2023-04-02T05:56:09.074Z,91.91
2023-04-02T05:57:09.096Z,91.60
2023-04-02T05:58:29.991Z,90.87
2023-04-02T05:59:09.061Z,90.87
2023-04-02T06:00:08.950Z,90.97
2023-04-02T06:01:08.979Z,90.25
2023-04-02T06:02:08.969Z,90.87
2023-04-02T06:03:09.188Z,90.35
2023-04-02T06:04:09.017Z,90.25
2023-04-02T06:05:08.927Z,90.25
2023-04-02T06:06:09.033Z,90.77
2023-04-02T06:07:08.886Z,89.94
2023-04-02T06:08:08.921Z,89.83
2023-04-02T06:09:08.887Z,89.52
2023-04-02T06:10:09.807Z,90.04
2023-04-02T06:11:08.856Z,90.35
2023-04-02T06:12:08.850Z,89.41
2023-04-02T06:13:08.849Z,89.41
2023-04-02T06:14:08.805Z,89.52
2023-04-02T06:15:08.821Z,89.41
2023-04-02T06:16:08.785Z,90.00
2023-04-02T06:17:08.774Z,89.58
2023-04-02T06:18:08.798Z,89.27
2023-04-02T06:19:08.832Z,88.85
2023-04-02T06:20:08.777Z,88.96
2023-04-02T06:21:08.736Z,89.27
2023-04-02T06:22:08.742Z,89.06
2023-04-02T06:23:08.717Z,89.27
2023-04-02T06:24:08.726Z,89.02
2023-04-02T06:25:08.713Z,89.17
2023-04-02T06:26:08.697Z,89.23
2023-04-02T06:27:08.776Z,89.64
2023-04-02T06:28:08.674Z,88.92
2023-04-02T06:29:08.656Z,88.60
2023-04-02T06:30:08.641Z,87.98
2023-04-02T06:31:08.734Z,88.60
2023-04-02T06:32:08.644Z,89.23
2023-04-02T06:33:08.682Z,87.98
2023-04-02T06:34:08.620Z,88.29
2023-04-02T06:35:08.587Z,87.66
2023-04-02T06:36:08.660Z,87.46
2023-04-02T06:37:08.576Z,87.66
2023-04-02T06:38:08.631Z,87.56
2023-04-02T06:39:08.568Z,87.66
2023-04-02T06:40:08.630Z,87.77
2023-04-02T06:41:08.531Z,87.77
2023-04-02T06:42:08.541Z,87.88
2023-04-02T06:43:08.513Z,87.35
2023-04-02T06:44:08.519Z,87.15
2023-04-02T06:45:08.628Z,86.63
2023-04-02T06:46:08.562Z,86.94
2023-04-02T06:47:08.485Z,86.73
2023-04-02T06:48:08.581Z,86.63
2023-04-02T06:49:08.476Z,86.63
2023-04-02T06:50:08.535Z,87.77
2023-04-02T06:51:08.444Z,88.09
2023-04-02T06:52:08.452Z,87.88
2023-04-02T06:53:08.430Z,87.15
2023-04-02T06:54:08.403Z,86.42
2023-04-02T06:55:08.455Z,86.73
2023-04-02T06:56:08.426Z,87.35
2023-04-02T06:57:08.539Z,86.94
2023-04-02T06:58:08.372Z,86.32
2023-04-02T06:59:08.345Z,86.32
2023-04-02T07:00:08.330Z,86.32
2023-04-02T07:01:08.398Z,86.11
2023-04-02T07:02:08.386Z,86.59
2023-04-02T07:03:08.348Z,86.38
2023-04-02T07:04:08.307Z,86.27
2023-04-02T07:05:08.437Z,86.27
2023-04-02T07:06:08.269Z,86.59
2023-04-02T07:07:08.269Z,86.59
2023-04-02T07:08:08.282Z,85.96
2023-04-02T07:09:08.259Z,85.86
2023-04-02T07:10:08.257Z,85.55
2023-04-02T07:11:08.201Z,84.72
2023-04-02T07:12:08.216Z,85.65
2023-04-02T07:13:08.305Z,84.82
2023-04-02T07:14:08.187Z,84.99
2023-04-02T07:15:08.169Z,84.89
2023-04-02T07:16:08.216Z,84.58
2023-04-02T07:17:08.140Z,84.05
2023-04-02T07:18:08.193Z,83.43
2023-04-02T07:19:08.161Z,83.43
2023-04-02T07:20:08.191Z,83.43
2023-04-02T07:21:08.148Z,83.22
2023-04-02T07:22:08.086Z,83.33
2023-04-02T07:23:08.077Z,84.37
2023-04-02T07:24:08.089Z,83.43
2023-04-02T07:25:08.073Z,84.16
2023-04-02T07:26:08.128Z,84.78
2023-04-02T07:27:08.081Z,83.84
2023-04-02T07:28:08.033Z,83.08
2023-04-02T07:29:08.027Z,83.29
2023-04-02T07:30:08.020Z,83.18
2023-04-02T07:31:08.094Z,83.39
2023-04-02T07:32:08.154Z,83.08
2023-04-02T07:33:08.125Z,82.98
2023-04-02T07:34:08.014Z,82.77
2023-04-02T07:35:07.989Z,83.39
2023-04-02T07:36:07.985Z,82.91
2023-04-02T07:37:07.935Z,83.22
2023-04-02T07:38:08.037Z,83.22
2023-04-02T07:39:07.933Z,83.74
2023-04-02T07:40:07.931Z,83.01
2023-04-02T07:41:07.908Z,83.12
2023-04-02T07:42:07.928Z,83.33
2023-04-02T07:43:07.879Z,84.58
2023-04-02T07:44:07.900Z,84.05
2023-04-02T07:45:07.866Z,83.01
2023-04-02T07:46:07.909Z,82.70
2023-04-02T07:47:07.858Z,83.68
2023-04-02T07:48:07.872Z,84.27
2023-04-02T07:49:07.804Z,83.74
2023-04-02T07:50:07.846Z,82.70
2023-04-02T07:51:07.800Z,83.05
2023-04-02T07:52:07.851Z,83.47
2023-04-02T07:53:07.759Z,84.27
2023-04-02T07:54:07.801Z,83.74
2023-04-02T07:55:07.833Z,83.74
2023-04-02T07:56:07.763Z,83.74
2023-04-02T07:57:07.864Z,84.78
2023-04-02T07:58:07.727Z,84.16
2023-04-02T07:59:07.702Z,83.53
2023-04-02T08:00:07.748Z,83.12
2023-04-02T08:01:07.745Z,84.27
2023-04-02T08:02:07.753Z,84.95
2023-04-02T08:03:07.941Z,83.81
2023-04-02T08:04:07.776Z,83.18
2023-04-02T08:05:07.680Z,82.87
2023-04-02T08:06:07.629Z,82.77
2023-04-02T08:07:07.618Z,83.81
2023-04-02T08:08:07.706Z,82.35
2023-04-02T08:09:07.634Z,81.63
2023-04-02T08:10:07.607Z,81.11
2023-04-02T08:11:07.593Z,82.04
2023-04-02T08:12:07.569Z,81.42
2023-04-02T08:13:07.567Z,82.15
2023-04-02T08:14:07.559Z,81.52
2023-04-02T08:15:07.571Z,81.52
2023-04-02T08:16:07.551Z,81.52
2023-04-02T08:17:07.533Z,80.90
2023-04-02T08:18:07.563Z,81.32
2023-04-02T08:19:07.628Z,80.59
2023-04-02T08:20:07.554Z,81.32
2023-04-02T08:21:07.487Z,81.94
2023-04-02T08:22:07.481Z,81.32
2023-04-02T08:23:07.455Z,81.73
2023-04-02T08:24:07.444Z,81.32
2023-04-02T08:25:07.455Z,80.90
2023-04-02T08:26:07.459Z,81.73
2023-04-02T08:27:07.409Z,80.49
2023-04-02T08:28:07.411Z,80.59
2023-04-02T08:29:07.392Z,80.49
2023-04-02T08:30:07.410Z,81.11
2023-04-02T08:31:07.411Z,81.11
2023-04-02T08:32:07.401Z,80.49
2023-04-02T08:33:07.461Z,80.90
2023-04-02T08:34:07.343Z,81.11
2023-04-02T08:35:07.396Z,80.18
2023-04-02T08:36:07.390Z,81.11
2023-04-02T08:37:07.329Z,80.83
2023-04-02T08:38:07.361Z,81.52
2023-04-02T08:39:07.364Z,81.84
2023-04-02T08:40:07.362Z,81.42
2023-04-02T08:41:07.256Z,82.35
2023-04-02T08:42:07.255Z,82.25
2023-04-02T08:43:07.317Z,82.21
2023-04-02T08:44:07.247Z,82.42
2023-04-02T08:45:21.140Z,81.18
2023-04-02T08:46:07.310Z,81.07
2023-04-02T08:47:07.210Z,81.18
2023-04-02T08:48:07.228Z,80.76
2023-04-02T08:49:07.191Z,80.35
2023-04-02T08:50:07.330Z,80.14
2023-04-02T08:51:07.181Z,80.04
2023-04-02T08:52:07.159Z,80.04
2023-04-02T08:53:07.196Z,80.45
2023-04-02T08:54:07.138Z,79.93
2023-04-02T08:55:07.115Z,80.55
2023-04-02T08:56:07.118Z,79.83
2023-04-02T08:57:07.258Z,79.30
2023-04-02T08:58:07.094Z,79.51
2023-04-02T08:59:07.069Z,79.83
2023-04-02T09:00:07.126Z,79.30
2023-04-02T09:01:07.069Z,79.93
2023-04-02T09:02:07.055Z,79.41
2023-04-02T09:03:07.162Z,81.80
2023-04-02T09:04:07.030Z,80.73
2023-04-02T09:05:07.077Z,80.31
2023-04-02T09:06:07.003Z,80.31
2023-04-02T09:07:07.004Z,79.17
2023-04-02T09:08:06.984Z,80.00
2023-04-02T09:09:06.969Z,80.41
2023-04-02T09:10:07.121Z,79.03
2023-04-02T09:11:06.947Z,78.92
2023-04-02T09:12:06.946Z,78.75
2023-04-02T09:13:06.977Z,78.61
2023-04-02T09:14:06.934Z,79.24
2023-04-02T09:15:06.900Z,79.24
2023-04-02T09:16:06.894Z,79.75
2023-04-02T09:17:06.907Z,79.03
2023-04-02T09:18:06.897Z,78.51
2023-04-02T09:19:06.931Z,78.72
2023-04-02T09:20:06.850Z,79.13
2023-04-02T09:21:06.847Z,78.72
2023-04-02T09:22:06.819Z,78.68
2023-04-02T09:23:06.825Z,78.99
2023-04-02T09:24:06.798Z,78.16
2023-04-02T09:25:06.791Z,78.27
2023-04-02T09:26:06.812Z,78.12
2023-04-02T09:27:06.765Z,77.50
2023-04-02T09:28:06.865Z,76.40
2023-04-02T09:29:06.734Z,76.92
2023-04-02T09:30:06.847Z,75.98
2023-04-02T09:31:07.399Z,77.12
2023-04-02T09:32:06.786Z,77.12
2023-04-02T09:33:06.794Z,77.44
2023-04-02T09:34:06.682Z,76.78
2023-04-02T09:35:15.041Z,75.74
2023-04-02T09:36:06.740Z,75.63
2023-04-02T09:37:06.716Z,75.81
2023-04-02T09:38:06.671Z,73.12
2023-04-02T09:39:06.659Z,74.15
2023-04-02T09:40:06.629Z,72.78
2023-04-02T09:41:06.702Z,74.05
2023-04-02T09:42:06.636Z,72.78
2023-04-02T09:43:06.597Z,70.89
2023-04-02T09:44:06.644Z,68.08
2023-04-02T09:45:06.596Z,67.90
2023-04-02T09:46:06.554Z,69.31
2023-04-02T09:47:06.571Z,66.22
2023-04-02T09:48:06.562Z,65.95
2023-04-02T09:49:06.542Z,62.84
2023-04-02T09:50:06.520Z,61.68
2023-04-02T09:51:06.607Z,61.91
2023-04-02T09:52:06.488Z,63.18
2023-04-02T09:53:06.603Z,63.13
2023-04-02T09:54:06.497Z,63.71
2023-04-02T09:55:06.467Z,63.50
2023-04-02T09:56:06.509Z,63.75
2023-04-02T09:57:06.575Z,62.88
2023-04-02T09:58:06.465Z,62.78
2023-04-02T09:59:06.429Z,63.40
2023-04-02T10:00:10.428Z,62.19
2023-04-02T10:01:06.477Z,62.33
2023-04-02T10:02:06.432Z,65.55
2023-04-02T10:03:06.433Z,64.68
2023-04-02T10:04:06.408Z,64.19
2023-04-02T10:05:06.349Z,64.95
2023-04-02T10:06:06.363Z,64.67
2023-04-02T10:07:06.485Z,65.83
2023-04-02T10:08:06.371Z,66.14
2023-04-02T10:09:06.311Z,67.14
2023-04-02T10:10:06.305Z,67.24
2023-04-02T10:11:06.306Z,67.24
2023-04-02T10:12:06.293Z,67.45
2023-04-02T10:13:06.291Z,67.45
2023-04-02T10:14:06.247Z,68.59
2023-04-02T10:15:06.330Z,67.27
2023-04-02T10:16:06.240Z,66.14
2023-04-02T10:17:06.257Z,66.27
2023-04-02T10:18:06.214Z,66.69
2023-04-02T10:19:06.229Z,67.30
2023-04-02T10:20:06.240Z,66.82
2023-04-02T10:21:06.217Z,69.09
2023-04-02T10:22:06.164Z,67.75
2023-04-02T10:23:06.576Z,67.93
2023-04-02T10:24:06.150Z,68.13
2023-04-02T10:25:06.119Z,68.16
2023-04-02T10:26:06.720Z,67.96
2023-04-02T10:27:06.111Z,68.06
2023-04-02T10:28:06.127Z,68.16
2023-04-02T10:29:07.191Z,67.47
2023-04-02T10:30:06.064Z,67.58
2023-04-02T10:31:06.100Z,68.30
2023-04-02T10:32:06.065Z,70.23
2023-04-02T10:33:06.120Z,67.12
2023-04-02T10:34:06.022Z,63.20
2023-04-02T10:35:06.009Z,60.49
2023-04-02T10:36:06.086Z,61.74
2023-04-02T10:37:05.990Z,58.46
2023-04-02T10:38:05.994Z,59.36
2023-04-02T10:39:06.034Z,60.10
2023-04-02T10:40:06.028Z,58.51
2023-04-02T10:41:05.977Z,59.50
2023-04-02T10:42:05.937Z,61.44
2023-04-02T10:43:05.916Z,60.75
2023-04-02T10:44:16.799Z,60.58
2023-04-02T10:45:05.960Z,62.12
2023-04-02T10:46:05.975Z,62.25
2023-04-02T10:47:05.878Z,61.61
2023-04-02T10:48:05.913Z,61.12
2023-04-02T10:49:05.984Z,62.97
2023-04-02T10:50:05.974Z,62.15
2023-04-02T10:51:05.928Z,64.48
2023-04-02T10:52:05.844Z,61.09
2023-04-02T10:53:05.830Z,62.43
2023-04-02T10:54:05.799Z,62.96
2023-04-02T10:55:05.846Z,58.90
2023-04-02T10:56:05.860Z,58.44
2023-04-02T10:57:05.817Z,58.78
2023-04-02T10:58:05.776Z,59.73
2023-04-02T10:59:05.777Z,61.30
2023-04-02T11:00:05.770Z,61.30
2023-04-02T11:01:05.742Z,61.53
2023-04-02T11:02:05.744Z,62.59
2023-04-02T11:03:05.788Z,63.10
2023-04-02T11:04:05.698Z,63.93
2023-04-02T11:05:05.705Z,64.75
2023-04-02T11:06:05.701Z,63.85
2023-04-02T11:07:13.996Z,64.37
2023-04-02T11:08:05.664Z,64.58
2023-04-02T11:09:05.645Z,63.24
2023-04-02T11:10:05.655Z,65.26
2023-04-02T11:11:05.614Z,63.79
2023-04-02T11:12:05.617Z,64.62
2023-04-02T11:13:05.598Z,66.06
2023-04-02T11:14:05.609Z,65.75
2023-04-02T11:15:05.601Z,64.75
2023-04-02T11:16:05.591Z,63.54
2023-04-02T11:17:05.608Z,65.02
2023-04-02T11:18:05.638Z,65.02
2023-04-02T11:19:05.542Z,66.70
2023-04-02T11:20:05.538Z,65.77
2023-04-02T11:21:05.545Z,67.11
2023-04-02T11:22:06.889Z,66.31
2023-04-02T11:23:05.500Z,67.86
2023-04-02T11:24:05.468Z,67.45
2023-04-02T11:25:05.477Z,67.97
2023-04-02T11:26:05.464Z,65.56
2023-04-02T11:27:05.475Z,66.70
2023-04-02T11:28:05.454Z,64.24
2023-04-02T11:29:05.417Z,63.39
2023-04-02T11:30:05.549Z,63.56
2023-04-02T11:31:05.436Z,62.53
2023-04-02T11:32:05.394Z,63.97
2023-04-02T11:33:05.558Z,62.95
2023-04-02T11:34:05.534Z,64.11
2023-04-02T11:35:07.491Z,64.65
2023-04-02T11:36:05.378Z,64.72
2023-04-02T11:37:05.350Z,65.20
2023-04-02T11:38:05.328Z,64.46
2023-04-02T11:39:16.556Z,59.58
2023-04-02T11:40:05.297Z,54.95
2023-04-02T11:41:05.297Z,56.63
2023-04-02T11:42:05.343Z,53.83
2023-04-02T11:43:05.259Z,54.51
2023-04-02T11:44:05.303Z,57.64
2023-04-02T11:45:05.254Z,57.89
2023-04-02T11:46:05.221Z,59.56
2023-04-02T11:47:05.226Z,59.31
2023-04-02T11:48:05.248Z,60.91
2023-04-02T11:49:05.240Z,62.92
2023-04-02T11:50:05.198Z,63.25
2023-04-02T11:51:05.216Z,64.51
2023-04-02T11:52:12.013Z,65.58
2023-04-02T11:53:05.166Z,65.40
2023-04-02T11:54:05.147Z,65.12
2023-04-02T11:55:05.207Z,66.56
2023-04-02T11:56:05.188Z,68.24
2023-04-02T11:57:05.188Z,68.04
2023-04-02T11:58:05.131Z,67.35
2023-04-02T11:59:05.119Z,68.00
2023-04-02T12:00:05.131Z,68.62
2023-04-02T12:01:05.086Z,69.13
2023-04-02T12:02:05.133Z,69.85
2023-04-02T12:03:05.185Z,68.10
2023-04-02T12:04:05.024Z,68.75
2023-04-02T12:05:05.195Z,68.85
2023-04-02T12:06:05.006Z,69.27
2023-04-02T12:07:05.084Z,69.92
2023-04-02T12:08:04.993Z,70.20
2023-04-02T12:09:04.996Z,69.71
2023-04-02T12:10:04.973Z,69.61
2023-04-02T12:11:04.958Z,69.30
2023-04-02T12:12:04.947Z,69.48
2023-04-02T12:13:04.934Z,70.51
2023-04-02T12:14:04.943Z,71.30
2023-04-02T12:15:04.918Z,69.85
2023-04-02T12:16:04.904Z,69.13
2023-04-02T12:17:06.296Z,69.65
2023-04-02T12:18:04.969Z,68.93
2023-04-02T12:19:04.909Z,69.54
2023-04-02T12:20:05.986Z,70.09
2023-04-02T12:21:04.938Z,69.68
2023-04-02T12:22:04.826Z,70.09
2023-04-02T12:23:04.893Z,70.61
2023-04-02T12:24:04.816Z,69.40
2023-04-02T12:25:04.821Z,69.92
2023-04-02T12:26:04.789Z,70.12
2023-04-02T12:27:04.788Z,69.82
2023-04-02T12:28:04.758Z,69.61
2023-04-02T12:29:04.758Z,70.12
2023-04-02T12:30:04.821Z,69.92
2023-04-02T12:31:04.758Z,70.75
2023-04-02T12:32:04.763Z,70.82
2023-04-02T12:33:04.792Z,69.48
2023-04-02T12:34:04.763Z,69.06
2023-04-02T12:35:04.748Z,69.17
2023-04-02T12:36:04.711Z,70.20
2023-04-02T12:37:04.680Z,69.85
2023-04-02T12:38:04.660Z,69.75
2023-04-02T12:39:04.700Z,68.72
2023-04-02T12:40:04.652Z,67.79
2023-04-02T12:41:04.624Z,68.10
2023-04-02T12:42:04.620Z,68.17
2023-04-02T12:43:04.598Z,66.08
2023-04-02T12:44:04.597Z,65.22
2023-04-02T12:45:04.595Z,64.92
2023-04-02T12:46:04.603Z,65.64
2023-04-02T12:47:04.569Z,65.25
2023-04-02T12:48:04.758Z,65.77
2023-04-02T12:49:04.534Z,66.39
2023-04-02T12:50:04.530Z,66.39
2023-04-02T12:51:04.594Z,66.91
2023-04-02T12:52:04.516Z,66.28